createdAt,value
2022-09-12T00:01:54.353Z,91042.91
2022-09-12T00:04:21.316Z,91046.78
2022-09-12T00:06:48.099Z,91062.31
2022-09-12T00:09:15.767Z,91068.13
2022-09-12T00:11:45.445Z,91060.53
2022-09-12T00:14:15.631Z,91070.19
2022-09-12T00:16:42.930Z,91064.72
2022-09-12T00:19:11.385Z,91066.16
2022-09-12T00:21:39.862Z,91060.13
2022-09-12T00:24:06.825Z,91058.41
2022-09-12T00:26:33.803Z,91052.75
2022-09-12T00:29:00.583Z,91050.88
2022-09-12T00:31:28.429Z,91032.03
2022-09-12T00:33:57.679Z,91048.22
2022-09-12T00:36:26.338Z,91044.78
2022-09-12T00:38:54.668Z,91039.38
2022-09-12T00:41:22.958Z,91043.47
2022-09-12T00:43:52.550Z,91050.50
2022-09-12T00:46:28.153Z,91047.50
2022-09-12T00:49:00.692Z,91026.47
2022-09-12T00:51:30.724Z,91038.75
2022-09-12T00:53:59.568Z,91042.72
2022-09-12T00:56:28.029Z,91036.75
2022-09-12T00:59:02.504Z,91044.31
2022-09-12T01:01:32.335Z,91031.28
2022-09-12T01:03:59.560Z,91030.56
2022-09-12T01:06:29.074Z,91046.06
2022-09-12T01:08:56.779Z,91050.28
2022-09-12T01:11:23.992Z,91040.88
2022-09-12T01:13:51.066Z,91032.28
2022-09-12T01:16:18.372Z,91033.25
2022-09-12T01:18:55.682Z,91026.81
2022-09-12T01:22:00.010Z,91033.56
2022-09-12T01:24:32.662Z,91030.50
2022-09-12T01:27:16.788Z,91025.97
2022-09-12T01:30:13.829Z,91028.38
2022-09-12T01:32:52.367Z,91025.69
2022-09-12T01:35:56.713Z,91026.00
2022-09-12T01:38:43.565Z,91027.13
2022-09-12T01:41:35.465Z,91017.66
2022-09-12T01:44:39.436Z,91019.66
2022-09-12T01:47:14.707Z,91017.50
2022-09-12T01:49:59.507Z,91021.09
2022-09-12T01:52:36.722Z,91012.97
2022-09-12T01:55:26.547Z,91015.72
2022-09-12T01:58:00.286Z,91020.97
2022-09-12T02:00:27.154Z,91010.34
2022-09-12T02:03:08.412Z,91010.38
2022-09-12T02:05:40.482Z,91005.38
2022-09-12T02:08:09.575Z,91004.31
2022-09-12T02:10:59.582Z,91000.50
2022-09-12T02:13:32.180Z,91005.78
2022-09-12T02:16:08.720Z,90992.53
2022-09-12T02:18:40.061Z,90996.03
2022-09-12T02:21:08.067Z,90996.78
2022-09-12T02:23:39.698Z,90999.00
2022-09-12T02:26:16.227Z,90979.66
2022-09-12T02:28:43.734Z,90988.13
2022-09-12T02:31:19.761Z,90977.41
2022-09-12T02:34:13.497Z,90974.47
2022-09-12T02:37:02.985Z,90980.66
2022-09-12T02:39:29.794Z,90977.66
2022-09-12T02:42:00.432Z,90998.84
2022-09-12T02:44:29.977Z,91014.06
2022-09-12T02:47:20.551Z,91005.50
2022-09-12T02:49:47.704Z,90994.44
2022-09-12T02:52:15.137Z,91001.84
2022-09-12T02:54:43.681Z,90997.69
2022-09-12T02:57:22.346Z,90992.03
2022-09-12T02:59:55.817Z,91004.19
2022-09-12T03:02:32.798Z,91007.44
2022-09-12T03:05:21.620Z,91005.56
2022-09-12T03:08:04.314Z,91005.38
2022-09-12T03:11:03.261Z,91004.78
2022-09-12T03:13:48.736Z,91010.19
2022-09-12T03:16:34.208Z,91007.47
2022-09-12T03:19:14.526Z,91005.69
2022-09-12T03:22:07.393Z,91015.81
2022-09-12T03:24:54.707Z,91016.09
2022-09-12T03:27:46.767Z,91014.19
2022-09-12T03:30:13.613Z,91011.66
2022-09-12T03:32:51.708Z,91019.13
2022-09-12T03:35:22.988Z,91007.66
2022-09-12T03:37:51.571Z,90990.94
2022-09-12T03:40:18.639Z,91007.66
2022-09-12T03:42:45.302Z,91027.50
2022-09-12T03:45:12.042Z,91021.44
2022-09-12T03:47:39.625Z,91017.00
2022-09-12T03:50:07.153Z,91022.03
2022-09-12T03:52:33.806Z,91017.94
2022-09-12T03:55:00.985Z,91028.34
2022-09-12T03:57:27.676Z,91017.72
2022-09-12T03:59:54.403Z,91021.84
2022-09-12T04:02:21.271Z,91027.16
2022-09-12T04:04:48.905Z,91039.09
2022-09-12T04:07:17.131Z,91030.78
2022-09-12T04:09:43.858Z,91043.75
2022-09-12T04:12:10.789Z,91049.00
2022-09-12T04:14:37.531Z,91040.44
2022-09-12T04:17:04.411Z,91022.41
2022-09-12T04:19:31.108Z,91040.75
2022-09-12T04:21:58.014Z,91041.50
2022-09-12T04:24:24.833Z,91040.34
2022-09-12T04:26:51.537Z,91042.16
2022-09-12T04:29:18.216Z,91043.56
2022-09-12T04:31:45.046Z,91051.78
2022-09-12T04:34:13.335Z,91054.81
2022-09-12T04:36:40.024Z,91059.38
2022-09-12T04:39:07.893Z,91060.19
2022-09-12T04:41:37.229Z,91070.25
2022-09-12T04:44:11.200Z,91051.56
2022-09-12T04:46:40.891Z,91052.00
2022-09-12T04:49:07.984Z,91068.78
2022-09-12T04:51:37.166Z,91069.34
2022-09-12T04:54:07.075Z,91067.13
2022-09-12T04:56:40.643Z,91073.16
2022-09-12T04:59:08.850Z,91063.69
2022-09-12T05:01:36.071Z,91067.91
2022-09-12T05:04:03.867Z,91078.81
2022-09-12T05:06:34.595Z,91077.25
2022-09-12T05:09:02.950Z,91078.75
2022-09-12T05:12:00.114Z,91081.97
2022-09-12T05:14:19.636Z,91071.50
2022-09-12T05:16:49.363Z,91076.22
2022-09-12T05:19:16.347Z,91080.47
2022-09-12T05:21:43.001Z,91078.03
2022-09-12T05:24:11.563Z,91064.19
2022-09-12T05:26:38.587Z,91076.22
2022-09-12T05:29:07.230Z,91064.94
2022-09-12T05:31:34.940Z,91072.22
2022-09-12T05:34:04.681Z,91079.00
2022-09-12T05:36:31.564Z,91086.34
2022-09-12T05:38:59.947Z,91083.84
2022-09-12T05:41:30.873Z,91085.97
2022-09-12T05:43:59.529Z,91078.31
2022-09-12T05:46:31.759Z,91069.88
2022-09-12T05:49:04.001Z,91070.63
2022-09-12T05:51:34.136Z,91087.22
2022-09-12T05:54:06.166Z,91076.78
2022-09-12T05:56:34.785Z,91077.31
2022-09-12T05:59:04.796Z,91075.84
2022-09-12T06:01:33.465Z,91071.38
2022-09-12T06:04:02.159Z,91066.38
2022-09-12T06:06:30.656Z,91072.69
2022-09-12T06:08:59.915Z,91066.66
2022-09-12T06:11:28.845Z,91071.34
2022-09-12T06:13:57.160Z,91061.66
2022-09-12T06:16:34.409Z,91077.63
2022-09-12T06:19:04.118Z,91066.19
2022-09-12T06:21:31.441Z,91065.97
2022-09-12T06:23:58.963Z,91052.22
2022-09-12T06:26:27.401Z,91066.91
2022-09-12T06:28:56.391Z,91063.28
2022-09-12T06:31:29.377Z,91062.56
2022-09-12T06:33:57.388Z,91065.88
2022-09-12T06:36:29.231Z,91072.06
2022-09-12T06:38:58.266Z,91080.91
2022-09-12T06:41:26.082Z,91072.88
2022-09-12T06:43:53.842Z,91082.47
2022-09-12T06:46:21.247Z,91079.50
2022-09-12T06:48:48.206Z,91068.34
2022-09-12T06:51:17.191Z,91069.78
2022-09-12T06:53:45.370Z,91075.34
2022-09-12T06:56:14.757Z,91072.56
2022-09-12T06:58:43.033Z,91074.03
2022-09-12T07:01:15.495Z,91080.38
2022-09-12T07:03:43.796Z,91090.44
2022-09-12T07:06:13.823Z,91084.69
2022-09-12T07:08:41.128Z,91079.81
2022-09-12T07:11:16.261Z,91078.41
2022-09-12T07:13:44.484Z,91073.03
2022-09-12T07:16:14.838Z,91075.66
2022-09-12T07:18:46.223Z,91069.59
2022-09-12T07:21:15.034Z,91077.66
2022-09-12T07:23:42.174Z,91056.13
2022-09-12T07:26:11.729Z,91093.81
2022-09-12T07:28:38.865Z,91088.97
2022-09-12T07:31:11.825Z,91098.16
2022-09-12T07:33:39.301Z,91080.22
2022-09-12T07:36:08.779Z,91084.06
2022-09-12T07:38:35.483Z,91090.19
2022-09-12T07:41:10.119Z,91095.03
2022-09-12T07:43:36.852Z,91095.63
2022-09-12T07:46:03.677Z,91101.47
2022-09-12T07:48:30.325Z,91093.75
2022-09-12T07:51:02.022Z,91100.78
2022-09-12T07:53:34.117Z,91098.06
2022-09-12T07:56:01.074Z,91107.41
2022-09-12T07:58:27.722Z,91100.00
2022-09-12T08:00:54.349Z,91100.78
2022-09-12T08:03:20.954Z,91095.50
2022-09-12T08:05:47.663Z,91100.75
2022-09-12T08:08:14.854Z,91100.84
2022-09-12T08:10:41.816Z,91106.69
2022-09-12T08:13:10.725Z,91104.81
2022-09-12T08:15:37.606Z,91091.59
2022-09-12T08:18:04.463Z,91105.59
2022-09-12T08:20:31.149Z,91094.28
2022-09-12T08:22:57.844Z,91096.94
2022-09-12T08:25:24.508Z,91098.06
2022-09-12T08:27:51.366Z,91091.13
2022-09-12T08:30:18.061Z,91087.03
2022-09-12T08:32:44.711Z,91097.59
2022-09-12T08:35:12.067Z,91105.63
2022-09-12T08:37:40.611Z,91092.13
2022-09-12T08:40:09.279Z,91094.81
2022-09-12T08:43:03.713Z,91084.66
2022-09-12T08:45:50.921Z,91085.50
2022-09-12T08:48:17.979Z,91080.41
2022-09-12T08:50:49.334Z,91077.75
2022-09-12T08:53:21.580Z,91086.31
2022-09-12T08:55:59.503Z,91085.47
2022-09-12T08:58:29.089Z,91081.25
2022-09-12T09:01:35.848Z,91074.28
2022-09-12T09:04:37.694Z,91083.19
2022-09-12T09:07:56.667Z,91076.97
2022-09-12T09:10:53.139Z,91076.84
2022-09-12T09:14:05.413Z,91071.03
2022-09-12T09:16:36.514Z,91079.28
2022-09-12T09:19:11.085Z,91075.41
2022-09-12T09:21:42.704Z,91064.59
2022-09-12T09:24:13.003Z,91072.28
2022-09-12T09:26:49.467Z,91079.25
2022-09-12T09:29:19.525Z,91073.13
2022-09-12T09:31:53.345Z,91071.75
2022-09-12T09:34:24.435Z,91057.38
2022-09-12T09:37:01.720Z,91074.06
2022-09-12T09:39:53.340Z,91068.00
2022-09-12T09:42:32.027Z,91071.41
2022-09-12T09:45:03.175Z,91065.34
2022-09-12T09:47:29.860Z,91064.03
2022-09-12T09:49:56.996Z,91056.78
2022-09-12T09:52:30.973Z,91070.28
2022-09-12T09:55:01.681Z,91048.56
2022-09-12T09:57:34.423Z,91061.97
2022-09-12T10:00:24.150Z,91067.00
2022-09-12T10:03:13.588Z,91063.19
2022-09-12T10:05:57.210Z,91059.81
2022-09-12T10:08:26.374Z,91062.75
2022-09-12T10:11:02.188Z,91062.50
2022-09-12T10:13:36.661Z,91071.47
2022-09-12T10:16:07.061Z,91062.13
2022-09-12T10:18:42.711Z,91065.66
2022-09-12T10:21:20.665Z,91067.47
2022-09-12T10:23:51.940Z,91062.16
2022-09-12T10:26:21.722Z,91046.50
2022-09-12T10:28:54.964Z,91059.09
2022-09-12T10:31:36.212Z,91060.19
2022-09-12T10:34:03.144Z,91064.41
2022-09-12T10:36:40.522Z,91065.94
2022-09-12T10:39:13.300Z,91067.19
2022-09-12T10:41:41.455Z,91072.16
2022-09-12T10:44:15.802Z,91074.88
2022-09-12T10:46:42.522Z,91074.44
2022-09-12T10:49:24.353Z,91068.41
2022-09-12T10:51:53.908Z,91068.78
2022-09-12T10:54:23.892Z,91068.50
2022-09-12T10:56:54.333Z,91068.66
2022-09-12T10:59:42.543Z,91069.41
2022-09-12T11:02:35.379Z,91074.75
2022-09-12T11:05:13.899Z,91067.50
2022-09-12T11:07:48.032Z,91075.94
2022-09-12T11:10:27.056Z,91083.75
2022-09-12T11:13:04.023Z,91065.00
2022-09-12T11:15:55.109Z,91065.28
2022-09-12T11:19:20.540Z,91061.78
2022-09-12T11:22:18.075Z,91063.47
2022-09-12T11:25:09.832Z,91054.97
2022-09-12T11:28:21.215Z,91063.03
2022-09-12T11:31:17.125Z,91049.25
2022-09-12T11:33:50.225Z,91054.78
2022-09-12T11:36:28.868Z,91035.53
2022-09-12T11:39:04.005Z,91056.91
2022-09-12T11:41:34.914Z,91049.44
2022-09-12T11:44:16.942Z,91048.94
2022-09-12T11:46:47.682Z,91051.78
2022-09-12T11:49:21.266Z,91050.34
2022-09-12T11:51:56.995Z,91051.03
2022-09-12T11:54:26.559Z,91060.16
2022-09-12T11:57:02.082Z,91061.97
2022-09-12T11:59:40.570Z,91059.75
2022-09-12T12:02:21.391Z,91051.47
2022-09-12T12:05:10.105Z,91051.78
2022-09-12T12:07:58.393Z,91047.13
2022-09-12T12:10:51.369Z,91048.19
2022-09-12T12:13:21.806Z,91031.53
2022-09-12T12:15:53.631Z,91034.88
2022-09-12T12:18:27.339Z,91033.22
2022-09-12T12:20:56.459Z,91030.56
2022-09-12T12:23:29.232Z,91030.66
2022-09-12T12:26:00.958Z,91023.38
2022-09-12T12:28:42.955Z,91023.69
2022-09-12T12:31:10.840Z,91025.28
2022-09-12T12:33:37.445Z,91022.59
2022-09-12T12:36:08.015Z,91025.50
2022-09-12T12:38:40.857Z,91032.66
2022-09-12T12:41:19.408Z,91024.94
2022-09-12T12:43:53.132Z,91019.59
2022-09-12T12:46:25.695Z,91022.69
2022-09-12T12:49:07.530Z,91016.38
2022-09-12T12:51:43.229Z,91017.22
2022-09-12T12:54:41.147Z,91007.41
2022-09-12T12:57:16.911Z,91019.16
2022-09-12T12:59:53.782Z,90991.84
2022-09-12T13:02:41.161Z,91022.00
2022-09-12T13:05:19.987Z,91016.31
2022-09-12T13:07:48.331Z,91001.88
2022-09-12T13:10:28.929Z,91004.31
2022-09-12T13:13:03.612Z,91015.44
2022-09-12T13:15:36.130Z,91000.75
2022-09-12T13:18:07.058Z,90997.63
2022-09-12T13:20:44.412Z,90990.75
2022-09-12T13:23:26.196Z,90990.59
2022-09-12T13:25:57.955Z,90995.41
2022-09-12T13:28:26.642Z,90990.09
2022-09-12T13:31:08.707Z,90990.91
2022-09-12T13:33:45.548Z,90980.84
2022-09-12T13:36:25.308Z,90987.75
2022-09-12T13:39:14.269Z,90971.09
2022-09-12T13:41:59.277Z,90982.25
2022-09-12T13:44:27.343Z,90978.78
2022-09-12T13:46:58.855Z,90988.44
2022-09-12T13:49:35.090Z,90985.09
2022-09-12T13:52:05.154Z,90987.25
2022-09-12T13:54:33.113Z,90986.22
2022-09-12T13:57:00.018Z,90990.94
2022-09-12T13:59:26.697Z,90977.00
2022-09-12T14:01:53.531Z,90998.06
2022-09-12T14:04:45.115Z,90989.75
2022-09-12T14:07:22.297Z,90996.59
2022-09-12T14:10:00.646Z,90991.56
2022-09-12T14:12:29.587Z,90993.47
2022-09-12T14:14:56.992Z,90999.13
2022-09-12T14:17:29.495Z,90997.59
2022-09-12T14:19:59.513Z,90993.16
2022-09-12T14:22:29.889Z,90994.34
2022-09-12T14:24:59.644Z,90998.50
2022-09-12T14:27:31.856Z,91000.13
2022-09-12T14:30:09.374Z,91005.63
2022-09-12T14:32:36.309Z,90995.03
2022-09-12T14:35:20.157Z,90990.22
2022-09-12T14:37:50.146Z,91000.94
2022-09-12T14:40:19.851Z,91000.00
2022-09-12T14:42:49.722Z,91004.97
2022-09-12T14:45:36.682Z,91013.34
2022-09-12T14:48:03.642Z,91014.72
2022-09-12T14:50:35.381Z,91010.81
2022-09-12T14:53:07.369Z,91012.41
2022-09-12T14:55:42.229Z,91018.97
2022-09-12T14:58:20.704Z,91012.53
2022-09-12T15:00:59.270Z,91014.00
2022-09-12T15:03:52.093Z,91017.28
2022-09-12T15:06:23.630Z,91019.00
2022-09-12T15:08:52.971Z,91018.53
2022-09-12T15:11:19.614Z,91018.78
2022-09-12T15:13:46.410Z,91017.03
2022-09-12T15:16:13.487Z,91019.88
2022-09-12T15:18:40.607Z,91028.53
2022-09-12T15:21:11.284Z,91024.06
2022-09-12T15:23:44.413Z,91023.19
2022-09-12T15:26:16.808Z,91018.50
2022-09-12T15:28:43.812Z,91019.28
2022-09-12T15:31:24.953Z,91025.41
2022-09-12T15:33:51.796Z,91023.28
2022-09-12T15:36:20.974Z,91021.66
2022-09-12T15:38:48.747Z,91023.19
2022-09-12T15:41:21.891Z,91028.66
2022-09-12T15:43:49.452Z,91032.09
2022-09-12T15:46:17.782Z,91029.00
2022-09-12T15:48:44.803Z,91038.06
2022-09-12T15:51:16.463Z,91030.19
2022-09-12T15:53:44.205Z,91037.31
2022-09-12T15:56:11.781Z,91034.66
2022-09-12T15:58:49.801Z,91028.50
2022-09-12T16:01:24.551Z,91023.41
2022-09-12T16:03:51.264Z,90996.00
2022-09-12T16:06:17.990Z,91030.50
2022-09-12T16:08:44.840Z,91033.16
2022-09-12T16:11:21.200Z,91024.75
2022-09-12T16:13:48.653Z,91013.84
2022-09-12T16:16:15.441Z,91030.22
2022-09-12T16:18:42.541Z,91029.47
2022-09-12T16:21:14.207Z,91026.16
2022-09-12T16:23:45.928Z,91027.75
2022-09-12T16:26:13.003Z,91025.84
2022-09-12T16:28:40.210Z,91018.06
2022-09-12T16:31:08.551Z,91020.97
2022-09-12T16:33:37.052Z,91030.84
2022-09-12T16:36:07.439Z,91025.22
2022-09-12T16:38:35.880Z,91023.81
2022-09-12T16:41:04.954Z,91024.75
2022-09-12T16:43:33.201Z,91026.13
2022-09-12T16:46:24.921Z,91033.56
2022-09-12T16:48:54.499Z,91039.72
2022-09-12T16:51:27.736Z,91050.78
2022-09-12T16:53:55.513Z,91052.53
2022-09-12T16:56:23.142Z,91055.22
2022-09-12T16:58:50.693Z,91061.19
2022-09-12T17:01:23.504Z,91065.97
2022-09-12T17:03:56.607Z,91067.81
2022-09-12T17:06:25.205Z,91035.66
2022-09-12T17:08:53.942Z,91060.72
2022-09-12T17:11:27.072Z,91057.63
2022-09-12T17:14:11.747Z,91052.31
2022-09-12T17:16:42.272Z,91045.72
2022-09-12T17:19:12.818Z,91065.94
2022-09-12T17:21:39.519Z,91061.63
2022-09-12T17:24:06.362Z,91072.25
2022-09-12T17:26:33.159Z,91063.94
2022-09-12T17:29:00.995Z,91051.19
2022-09-12T17:31:27.890Z,91080.38
2022-09-12T17:33:59.129Z,91077.47
2022-09-12T17:36:27.099Z,91080.53
2022-09-12T17:38:54.459Z,91083.84
2022-09-12T17:41:23.960Z,91082.34
2022-09-12T17:43:55.695Z,91091.13
2022-09-12T17:46:24.528Z,91083.84
2022-09-12T17:48:53.586Z,91084.56
2022-09-12T17:51:22.085Z,91083.91
2022-09-12T17:53:49.338Z,91084.50
2022-09-12T17:56:15.986Z,91057.78
2022-09-12T17:58:42.899Z,91090.56
2022-09-12T18:01:33.248Z,91090.03
2022-09-12T18:04:01.151Z,91091.16
2022-09-12T18:06:29.230Z,91098.19
2022-09-12T18:08:55.966Z,91094.59
2022-09-12T18:11:22.988Z,91091.66
2022-09-12T18:13:50.676Z,91101.88
2022-09-12T18:16:17.868Z,91100.78
2022-09-12T18:18:44.558Z,91103.84
2022-09-12T18:21:12.344Z,91103.91
2022-09-12T18:23:39.485Z,91091.28
2022-09-12T18:26:09.363Z,91112.81
2022-09-12T18:28:38.309Z,91114.91
2022-09-12T18:31:11.249Z,91113.13
2022-09-12T18:33:38.286Z,91117.88
2022-09-12T18:36:06.023Z,91112.38
2022-09-12T18:38:33.288Z,91117.09
2022-09-12T18:41:05.632Z,91130.88
2022-09-12T18:43:32.678Z,91105.31
2022-09-12T18:46:06.484Z,91110.06
2022-09-12T18:48:34.392Z,91119.13
2022-09-12T18:51:18.451Z,91104.84
2022-09-12T18:53:54.302Z,91118.28
2022-09-12T18:56:22.320Z,91133.03
2022-09-12T18:58:53.566Z,91123.38
2022-09-12T19:01:25.735Z,91120.00
2022-09-12T19:03:53.658Z,91120.66
2022-09-12T19:06:23.055Z,91119.47
2022-09-12T19:08:50.927Z,91114.72
2022-09-12T19:11:18.779Z,91116.41
2022-09-12T19:13:47.341Z,91115.66
2022-09-12T19:16:17.621Z,91107.69
2022-09-12T19:18:44.519Z,91111.59
2022-09-12T19:21:15.843Z,91109.88
2022-09-12T19:23:42.759Z,91091.56
2022-09-12T19:26:11.946Z,91120.63
2022-09-12T19:28:39.327Z,91110.56
2022-09-12T19:31:07.818Z,91121.47
2022-09-12T19:33:35.195Z,91115.78
2022-09-12T19:36:17.521Z,91121.53
2022-09-12T19:38:53.477Z,91121.53
2022-09-12T19:41:20.716Z,91121.31
2022-09-12T19:43:47.572Z,91110.44
2022-09-12T19:46:17.426Z,91093.53
2022-09-12T19:48:45.085Z,91108.03
2022-09-12T19:51:12.591Z,91114.69
2022-09-12T19:53:39.661Z,91108.66
2022-09-12T19:56:08.915Z,91107.22
2022-09-12T19:58:41.181Z,91098.94
2022-09-12T20:01:16.470Z,91105.16
2022-09-12T20:03:44.611Z,91101.31
2022-09-12T20:06:14.338Z,91097.91
2022-09-12T20:08:42.420Z,91098.78
2022-09-12T20:11:10.651Z,91092.91
2022-09-12T20:13:37.588Z,91107.78
2022-09-12T20:16:12.102Z,91110.75
2022-09-12T20:18:39.062Z,91089.47
2022-09-12T20:21:31.628Z,91111.06
2022-09-12T20:24:07.659Z,91104.47
2022-09-12T20:26:34.769Z,91098.75
2022-09-12T20:29:01.885Z,91097.06
2022-09-12T20:31:28.904Z,91096.22
2022-09-12T20:33:56.060Z,91101.38
2022-09-12T20:36:23.125Z,91102.75
2022-09-12T20:38:52.429Z,91110.13
2022-09-12T20:41:20.625Z,91106.31
2022-09-12T20:43:55.032Z,91116.84
2022-09-12T20:46:22.920Z,91112.22
2022-09-12T20:48:51.208Z,91098.94
2022-09-12T20:51:19.243Z,91127.66
2022-09-12T20:53:46.049Z,91123.09
2022-09-12T20:56:12.821Z,91120.28
2022-09-12T20:58:43.709Z,91103.81
2022-09-12T21:01:12.214Z,91124.63
2022-09-12T21:03:40.366Z,91114.91
2022-09-12T21:06:08.974Z,91122.47
2022-09-12T21:08:37.313Z,91130.00
2022-09-12T21:11:04.448Z,91112.31
2022-09-12T21:13:31.203Z,91129.31
2022-09-12T21:16:10.275Z,91127.72
2022-09-12T21:18:37.389Z,91130.25
2022-09-12T21:21:05.419Z,91143.16
2022-09-12T21:23:33.765Z,91121.47
2022-09-12T21:26:01.545Z,91135.34
2022-09-12T21:28:28.733Z,91138.03
2022-09-12T21:30:56.255Z,91138.38
2022-09-12T21:33:23.526Z,91150.81
2022-09-12T21:35:50.444Z,91141.56
2022-09-12T21:38:18.876Z,91147.91
2022-09-12T21:40:46.796Z,91149.59
2022-09-12T21:43:14.226Z,91148.13
2022-09-12T21:45:40.898Z,91151.03
2022-09-12T21:48:07.869Z,91150.75
2022-09-12T21:50:34.564Z,91144.25
2022-09-12T21:53:01.182Z,91142.38
2022-09-12T21:55:28.165Z,91144.25
2022-09-12T21:57:55.169Z,91149.53
2022-09-12T22:00:22.558Z,91142.94
2022-09-12T22:02:49.338Z,91141.44
2022-09-12T22:05:16.810Z,91126.34
2022-09-12T22:07:43.544Z,91137.56
2022-09-12T22:10:10.774Z,91124.44
2022-09-12T22:12:37.511Z,91139.13
2022-09-12T22:15:23.005Z,91130.94
2022-09-12T22:17:51.916Z,91137.72
2022-09-12T22:20:18.771Z,91135.47
2022-09-12T22:23:03.865Z,91141.47
2022-09-12T22:25:30.755Z,91127.94
2022-09-12T22:27:58.281Z,91111.13
2022-09-12T22:30:27.383Z,91127.25
2022-09-12T22:32:54.513Z,91123.91
2022-09-12T22:35:21.130Z,91125.75
2022-09-12T22:37:47.992Z,91124.19
2022-09-12T22:40:15.763Z,91119.56
2022-09-12T22:42:42.840Z,91116.06
2022-09-12T22:45:10.047Z,91113.78
2022-09-12T22:47:36.808Z,91112.28
2022-09-12T22:50:04.063Z,91115.75
2022-09-12T22:52:30.684Z,91112.38
2022-09-12T22:54:57.298Z,91101.16
2022-09-12T22:57:24.031Z,91104.53
2022-09-12T22:59:50.659Z,91101.22
2022-09-12T23:02:17.351Z,91091.50
2022-09-12T23:04:44.228Z,91112.91
2022-09-12T23:07:11.099Z,91103.19
2022-09-12T23:09:37.766Z,91093.34
2022-09-12T23:12:04.536Z,91098.72
2022-09-12T23:14:31.202Z,91090.09
2022-09-12T23:16:57.875Z,91099.78
2022-09-12T23:19:24.557Z,91092.66
2022-09-12T23:21:51.324Z,91105.06
2022-09-12T23:24:18.532Z,91098.34
2022-09-12T23:26:45.260Z,91092.28
2022-09-12T23:29:11.923Z,91095.34
2022-09-12T23:31:38.918Z,91090.09
2022-09-12T23:34:06.247Z,91093.88
2022-09-12T23:36:34.267Z,91088.56
2022-09-12T23:39:01.806Z,91082.59
2022-09-12T23:41:28.588Z,91081.03
2022-09-12T23:43:55.322Z,91078.00
2022-09-12T23:46:22.218Z,91084.78
2022-09-12T23:48:49.492Z,91090.72
2022-09-12T23:51:16.516Z,91089.56
2022-09-12T23:53:43.492Z,91085.47
2022-09-12T23:56:10.858Z,91078.84
2022-09-12T23:58:37.601Z,91084.84
